Time;durP1;ratioP1;P1;durP2;ratioP2;P2;SDS_P1;SDS_P2;PMS_P1;PMS_P2;Temp;Humidity;BMP_temperature;BMP_pressure;BME280_temperature;BME280_humidity;BME280_pressure;Samples;Min_cycle;Max_cycle;Signal;HPM_P1;HPM_P2
2023/05/09 00:01:30;;;;;;;37.05;24.27;;;17.40;74.40;;;;;;5012347;28;20039;-72
2023/05/09 00:03:57;;;;;;;43.28;30.98;;;17.40;74.60;;;;;;5024656;28;20052;-72
2023/05/09 00:06:25;;;;;;;42.60;31.02;;;17.40;74.80;;;;;;5022817;28;20060;-72
2023/05/09 00:08:51;;;;;;;42.28;30.40;;;17.30;75.10;;;;;;5016320;28;20060;-72
2023/05/09 00:11:17;;;;;;;38.20;28.27;;;17.20;75.30;;;;;;5018134;28;20046;-72
2023/05/09 00:13:43;;;;;;;41.97;30.95;;;17.10;75.60;;;;;;5025999;28;20451;-72
2023/05/09 00:16:09;;;;;;;46.42;33.00;;;17.10;76.00;;;;;;5010981;28;20387;-72
2023/05/09 00:18:36;;;;;;;46.10;34.22;;;17.00;76.20;;;;;;5015202;28;20052;-72
2023/05/09 00:21:03;;;;;;;42.65;30.92;;;17.00;76.60;;;;;;5028139;28;20049;-72
2023/05/09 00:23:31;;;;;;;46.05;33.13;;;16.90;76.90;;;;;;5030867;28;20041;-72
2023/05/09 00:25:58;;;;;;;47.40;33.78;;;16.80;77.30;;;;;;5028663;28;20095;-73
2023/05/09 00:28:23;;;;;;;46.50;32.78;;;16.70;77.70;;;;;;5026406;28;20034;-72
2023/05/09 00:30:50;;;;;;;46.58;33.78;;;16.60;78.00;;;;;;5022381;28;20052;-72
2023/05/09 00:33:15;;;;;;;47.53;31.77;;;16.60;78.20;;;;;;5024304;28;20572;-72
2023/05/09 00:35:41;;;;;;;49.08;34.58;;;16.50;78.50;;;;;;5034513;28;20116;-72
2023/05/09 00:38:07;;;;;;;45.78;32.13;;;16.40;78.70;;;;;;5009741;28;20481;-72
2023/05/09 00:40:32;;;;;;;48.42;33.58;;;16.30;79.00;;;;;;5026261;28;20127;-72
2023/05/09 00:42:59;;;;;;;42.90;30.70;;;16.30;79.30;;;;;;5024787;28;20108;-72
2023/05/09 00:45:25;;;;;;;46.97;32.90;;;16.20;79.50;;;;;;5021491;28;20049;-71
2023/05/09 00:47:50;;;;;;;45.85;30.20;;;16.20;79.70;;;;;;5004173;28;20072;-71
2023/05/09 00:50:16;;;;;;;50.70;34.20;;;16.10;79.80;;;;;;5025969;28;20128;-72
2023/05/09 00:52:42;;;;;;;48.28;31.02;;;16.10;80.00;;;;;;5019742;28;20043;-72
2023/05/09 00:55:09;;;;;;;41.67;29.80;;;16.10;80.10;;;;;;5025740;28;20050;-72
2023/05/09 00:57:35;;;;;;;45.50;30.75;;;16.00;80.20;;;;;;5023745;28;20041;-72
2023/05/09 01:00:03;;;;;;;45.10;30.25;;;16.00;80.20;;;;;;5029657;28;20053;-71
2023/05/09 01:02:30;;;;;;;38.83;26.73;;;16.00;80.30;;;;;;5025807;28;20032;-71
2023/05/09 01:04:56;;;;;;;37.60;26.98;;;16.00;80.40;;;;;;5025257;28;20485;-72
2023/05/09 01:07:34;;;;;;;48.58;33.08;;;16.00;80.40;;;;;;5041834;28;20038;-72
2023/05/09 01:10:08;;;;;;;40.63;28.42;;;16.00;80.40;;;;;;5020808;28;20041;-71
2023/05/09 01:12:48;;;;;;;34.17;24.48;;;16.00;80.40;;;;;;5029097;28;20091;-72
2023/05/09 01:15:36;;;;;;;39.75;28.02;;;16.00;80.40;;;;;;5020465;28;20122;-72
2023/05/09 01:18:06;;;;;;;36.33;26.77;;;16.00;80.30;;;;;;5025312;28;20041;-72
2023/05/09 01:20:39;;;;;;;46.03;31.20;;;16.00;80.20;;;;;;5030612;28;20041;-71
2023/05/09 01:23:05;;;;;;;34.73;24.13;;;16.00;80.20;;;;;;5032725;28;20412;-71
2023/05/09 01:26:09;;;;;;;32.05;24.52;;;16.00;80.10;;;;;;5024700;28;20042;-71
2023/05/09 01:28:43;;;;;;;30.57;22.53;;;16.10;79.80;;;;;;4931299;29;20047;-71
2023/05/09 01:31:09;;;;;;;;;;;16.10;80.00;;;;;;4947791;28;20035;-71
2023/05/09 01:33:39;;;;;;;28.95;20.08;;;16.10;79.20;;;;;;4981253;28;19928;-71
2023/05/09 01:36:15;;;;;;;30.67;23.27;;;16.10;79.60;;;;;;5025561;28;20116;-71
2023/05/09 01:38:44;;;;;;;31.73;22.67;;;16.10;79.90;;;;;;5023557;28;20498;-71
2023/05/09 01:41:14;;;;;;;27.60;19.73;;;16.10;79.80;;;;;;5042652;28;20052;-71
2023/05/09 01:43:44;;;;;;;26.13;19.10;;;16.20;79.30;;;;;;5027956;28;20116;-68
2023/05/09 01:46:12;;;;;;;22.85;18.13;;;16.20;79.20;;;;;;5026151;28;20131;-68
2023/05/09 01:48:40;;;;;;;36.95;26.15;;;16.20;78.90;;;;;;5034684;28;20096;-68
2023/05/09 01:51:07;;;;;;;43.67;31.77;;;16.30;78.90;;;;;;5025774;28;20072;-68
2023/05/09 01:53:34;;;;;;;42.03;30.13;;;16.30;79.10;;;;;;5029536;28;20116;-68
2023/05/09 01:56:03;;;;;;;39.17;27.85;;;16.30;79.40;;;;;;5016894;28;20068;-67
2023/05/09 01:58:32;;;;;;;27.67;20.88;;;16.30;79.50;;;;;;5029172;28;20040;-68
2023/05/09 02:01:00;;;;;;;27.20;20.30;;;16.30;79.40;;;;;;5034252;28;20091;-68
2023/05/09 02:03:26;;;;;;;33.00;23.45;;;16.40;79.10;;;;;;5035453;28;20045;-68
2023/05/09 02:05:54;;;;;;;33.42;23.48;;;16.40;79.00;;;;;;5021287;28;20100;-67
2023/05/09 02:08:20;;;;;;;37.70;25.45;;;16.40;79.00;;;;;;5033534;28;20530;-68
2023/05/09 02:10:48;;;;;;;27.92;20.70;;;16.40;78.90;;;;;;5034213;28;20040;-67
2023/05/09 02:13:14;;;;;;;39.47;28.45;;;16.40;78.90;;;;;;5014130;28;20112;-68
2023/05/09 02:20:55;;;;;;;34.35;25.55;;;16.50;79.00;;;;;;5232109;23;1240155;-67
2023/05/09 02:23:21;;;;;;;38.42;27.48;;;16.50;79.00;;;;;;5051794;28;20345;-69
2023/05/09 02:25:46;;;;;;;37.53;27.40;;;16.50;79.00;;;;;;5049519;28;20032;-69
2023/05/09 02:28:13;;;;;;;45.78;30.15;;;16.50;78.90;;;;;;5032858;28;20064;-69
2023/05/09 02:30:43;;;;;;;41.97;30.00;;;16.50;79.00;;;;;;5033573;28;20037;-66
2023/05/09 02:33:11;;;;;;;43.90;28.73;;;16.50;79.20;;;;;;5050539;28;20045;-67
2023/05/09 02:35:38;;;;;;;39.47;28.08;;;16.50;79.20;;;;;;5053180;28;20136;-67
2023/05/09 02:38:05;;;;;;;39.20;27.98;;;16.50;79.20;;;;;;5051087;28;20037;-68
2023/05/09 02:40:32;;;;;;;42.60;29.92;;;16.50;79.20;;;;;;5052031;28;20107;-67
2023/05/09 02:42:58;;;;;;;37.67;26.23;;;16.50;79.30;;;;;;5045299;28;20126;-67
2023/05/09 02:45:24;;;;;;;49.83;33.78;;;16.50;79.30;;;;;;5033912;28;20487;-68
2023/05/09 02:47:49;;;;;;;46.10;33.13;;;16.50;79.40;;;;;;5043140;28;20402;-68
2023/05/09 02:50:15;;;;;;;44.97;30.90;;;16.50;79.60;;;;;;5051089;28;20044;-67
2023/05/09 02:52:41;;;;;;;44.90;30.27;;;16.40;79.60;;;;;;5049405;28;20116;-68
2023/05/09 02:55:07;;;;;;;47.25;31.52;;;16.40;79.80;;;;;;5052322;28;20166;-67
2023/05/09 02:57:33;;;;;;;44.50;30.27;;;16.40;79.90;;;;;;5051411;28;20144;-68
2023/05/09 02:59:59;;;;;;;34.70;26.05;;;16.40;80.00;;;;;;5034456;28;20522;-68
2023/05/09 03:02:24;;;;;;;36.85;27.02;;;16.40;80.10;;;;;;5047260;28;20124;-68
2023/05/09 03:04:50;;;;;;;38.15;28.65;;;16.30;80.10;;;;;;5046366;28;20047;-67
2023/05/09 03:07:16;;;;;;;46.58;31.50;;;16.30;80.00;;;;;;5049180;28;20075;-67
2023/05/09 03:09:42;;;;;;;42.78;29.77;;;16.30;80.10;;;;;;5041514;28;20052;-68
2023/05/09 03:12:07;;;;;;;41.10;29.30;;;16.30;80.20;;;;;;5027077;28;20029;-67
2023/05/09 03:14:33;;;;;;;39.45;28.15;;;16.30;80.30;;;;;;5051670;28;20052;-67
2023/05/09 03:16:59;;;;;;;48.45;31.98;;;16.20;80.30;;;;;;5051961;28;20048;-68
2023/05/09 03:19:24;;;;;;;47.20;30.70;;;16.30;80.50;;;;;;5039973;28;20029;-67
2023/05/09 03:21:50;;;;;;;48.30;33.65;;;16.20;80.50;;;;;;5032110;28;20085;-68
2023/05/09 03:24:16;;;;;;;48.15;33.45;;;16.20;80.60;;;;;;5031770;28;20128;-67
2023/05/09 03:26:41;;;;;;;40.88;28.77;;;16.20;80.60;;;;;;5031971;28;20053;-67
2023/05/09 03:29:07;;;;;;;44.42;31.45;;;16.20;80.70;;;;;;5010751;28;20530;-67
2023/05/09 03:31:33;;;;;;;46.72;32.42;;;16.20;80.90;;;;;;5020893;28;20041;-67
2023/05/09 03:33:59;;;;;;;44.42;31.63;;;16.10;80.90;;;;;;5031904;28;20497;-68
2023/05/09 03:36:25;;;;;;;53.05;34.22;;;16.10;81.00;;;;;;5031514;28;20095;-68
2023/05/09 03:38:51;;;;;;;48.90;32.67;;;16.10;81.20;;;;;;5029765;28;20038;-68
2023/05/09 03:41:17;;;;;;;51.35;33.28;;;16.10;81.20;;;;;;5018454;28;20042;-68
2023/05/09 03:43:43;;;;;;;48.63;32.90;;;16.10;81.20;;;;;;5031282;28;20048;-68
2023/05/09 03:46:09;;;;;;;52.67;35.25;;;16.00;81.30;;;;;;5031559;28;20081;-68
2023/05/09 03:48:35;;;;;;;54.63;36.10;;;16.10;81.50;;;;;;5032289;28;20091;-68
2023/05/09 03:51:01;;;;;;;58.45;36.90;;;16.00;81.50;;;;;;5017136;28;20046;-69
2023/05/09 03:53:27;;;;;;;51.70;34.33;;;16.00;81.60;;;;;;5015925;28;20096;-68
2023/05/09 03:55:53;;;;;;;58.90;36.97;;;16.00;81.60;;;;;;5022231;28;20484;-68
2023/05/09 03:58:19;;;;;;;58.33;38.28;;;16.00;81.70;;;;;;5034910;28;20087;-68
2023/05/09 04:00:45;;;;;;;53.08;36.55;;;16.00;81.90;;;;;;5024186;28;20048;-69
2023/05/09 04:03:11;;;;;;;59.97;39.17;;;15.90;82.00;;;;;;5035178;28;20167;-68
2023/05/09 04:05:37;;;;;;;66.80;42.00;;;15.90;82.10;;;;;;5002945;28;20444;-68
2023/05/09 04:08:03;;;;;;;61.72;38.35;;;15.90;82.30;;;;;;5035721;28;20179;-68
2023/05/09 04:10:30;;;;;;;60.50;38.40;;;15.90;82.40;;;;;;5024158;28;20052;-68
2023/05/09 04:12:56;;;;;;;63.47;41.15;;;15.80;82.50;;;;;;5018718;28;20566;-68
2023/05/09 04:15:21;;;;;;;61.10;38.58;;;15.80;82.60;;;;;;5035414;28;20135;-67
2023/05/09 04:17:47;;;;;;;56.40;35.92;;;15.80;82.80;;;;;;5035083;28;20586;-68
2023/05/09 04:20:13;;;;;;;62.63;39.53;;;15.80;82.90;;;;;;5023623;28;20034;-67
2023/05/09 04:22:39;;;;;;;65.45;40.42;;;15.80;83.00;;;;;;5034700;28;20060;-68
2023/05/09 04:25:06;;;;;;;69.45;42.90;;;15.80;83.00;;;;;;5024979;28;20045;-68
2023/05/09 04:27:32;;;;;;;66.28;42.45;;;15.80;83.10;;;;;;5038098;28;20114;-68
2023/05/09 04:29:57;;;;;;;58.22;36.40;;;15.80;83.20;;;;;;5055165;28;20465;-68
2023/05/09 04:32:23;;;;;;;66.25;41.58;;;15.80;83.30;;;;;;5050130;28;20048;-67
2023/05/09 04:34:49;;;;;;;61.33;39.55;;;15.80;83.40;;;;;;5038859;28;20045;-68
2023/05/09 04:37:14;;;;;;;68.25;43.15;;;15.80;83.50;;;;;;5034048;28;20041;-68
2023/05/09 04:39:40;;;;;;;61.40;38.65;;;15.80;83.50;;;;;;5035774;28;20076;-68
2023/05/09 04:42:06;;;;;;;69.75;43.90;;;15.80;83.50;;;;;;5037538;28;20045;-67
2023/05/09 04:44:32;;;;;;;73.28;44.70;;;15.80;83.60;;;;;;5034720;28;20292;-68
2023/05/09 04:46:58;;;;;;;65.63;40.55;;;15.80;83.70;;;;;;5015316;28;20084;-68
2023/05/09 04:49:24;;;;;;;62.53;41.85;;;15.80;83.80;;;;;;5014682;28;20077;-68
2023/05/09 04:51:52;;;;;;;65.82;41.47;;;15.80;83.90;;;;;;5016519;28;20042;-68
2023/05/09 04:54:18;;;;;;;59.63;39.45;;;15.80;83.90;;;;;;5054330;28;20052;-67
2023/05/09 04:56:43;;;;;;;66.65;42.92;;;15.80;83.90;;;;;;5041668;28;20038;-68
2023/05/09 04:59:09;;;;;;;69.68;44.33;;;15.80;84.00;;;;;;5008476;28;20041;-68
2023/05/09 05:01:35;;;;;;;71.90;45.10;;;15.80;84.00;;;;;;5025399;28;20049;-68
2023/05/09 05:04:01;;;;;;;71.35;45.83;;;15.90;84.20;;;;;;5049887;28;20087;-68
2023/05/09 05:06:26;;;;;;;74.20;45.67;;;15.80;84.30;;;;;;5032168;28;20128;-68
2023/05/09 05:08:52;;;;;;;78.22;48.00;;;15.90;84.40;;;;;;5034138;28;20049;-68
2023/05/09 05:11:19;;;;;;;75.38;45.05;;;15.90;84.60;;;;;;5020202;28;20041;-71
2023/05/09 05:13:45;;;;;;;74.18;46.40;;;15.80;84.60;;;;;;5015049;28;20041;-72
2023/05/09 05:16:10;;;;;;;73.35;45.40;;;15.80;84.70;;;;;;5040363;28;20484;-72
2023/05/09 05:18:36;;;;;;;77.55;49.63;;;15.80;84.80;;;;;;5019468;28;20042;-71
2023/05/09 05:21:02;;;;;;;78.60;49.60;;;15.80;84.90;;;;;;5019147;28;20054;-71
2023/05/09 05:23:28;;;;;;;80.95;48.20;;;15.80;85.00;;;;;;5030710;28;20061;-72
2023/05/09 05:25:53;;;;;;;75.63;46.92;;;15.80;85.10;;;;;;5005497;28;20076;-72
2023/05/09 05:28:19;;;;;;;75.80;48.97;;;15.80;85.20;;;;;;5019670;28;20055;-71
2023/05/09 05:30:45;;;;;;;78.97;48.25;;;15.80;85.20;;;;;;5023558;28;20050;-72
2023/05/09 05:33:10;;;;;;;81.13;50.00;;;15.80;85.40;;;;;;5044091;28;20120;-72
2023/05/09 05:35:36;;;;;;;78.18;49.00;;;15.80;85.50;;;;;;5027274;28;20377;-71
2023/05/09 05:38:02;;;;;;;82.22;49.83;;;15.80;85.60;;;;;;5024999;28;20045;-71
2023/05/09 05:40:27;;;;;;;77.30;47.63;;;15.90;85.70;;;;;;5044995;28;20037;-71
2023/05/09 05:42:53;;;;;;;85.28;49.20;;;15.90;85.80;;;;;;5010614;28;20044;-72
2023/05/09 05:45:19;;;;;;;81.40;49.58;;;15.90;86.00;;;;;;5004563;28;20041;-71
2023/05/09 05:47:45;;;;;;;80.72;49.28;;;15.90;86.10;;;;;;5022096;28;20044;-72
2023/05/09 05:50:11;;;;;;;71.20;47.25;;;15.90;86.10;;;;;;5022508;28;20069;-72
2023/05/09 05:52:37;;;;;;;78.55;49.00;;;16.00;86.10;;;;;;5020131;28;20042;-72
2023/05/09 05:55:04;;;;;;;83.97;52.03;;;16.00;86.20;;;;;;5045475;28;20409;-72
2023/05/09 05:57:30;;;;;;;79.50;51.15;;;16.00;86.30;;;;;;5020221;28;20397;-72
2023/05/09 05:59:55;;;;;;;75.80;47.63;;;16.00;86.30;;;;;;5007279;28;20124;-72
2023/05/09 06:02:21;;;;;;;82.38;50.53;;;16.00;86.20;;;;;;5023229;28;20046;-72
2023/05/09 06:04:47;;;;;;;73.82;49.92;;;16.10;86.20;;;;;;5020886;28;20550;-72
2023/05/09 06:07:13;;;;;;;72.88;49.33;;;16.10;86.20;;;;;;5021127;28;20077;-72
2023/05/09 06:09:38;;;;;;;75.32;48.88;;;16.20;86.20;;;;;;5019338;28;20506;-72
2023/05/09 06:12:05;;;;;;;75.28;50.40;;;16.20;86.10;;;;;;5018620;28;20050;-72
2023/05/09 06:14:31;;;;;;;72.32;48.75;;;16.20;86.00;;;;;;5021900;28;20056;-71
2023/05/09 06:16:57;;;;;;;71.70;45.72;;;16.30;86.10;;;;;;5007045;28;20037;-72
2023/05/09 06:19:23;;;;;;;65.72;44.47;;;16.30;86.00;;;;;;5023200;28;20080;-72
2023/05/09 06:21:49;;;;;;;68.68;46.33;;;16.30;85.80;;;;;;5023160;28;20491;-72
2023/05/09 06:24:15;;;;;;;71.90;48.58;;;16.40;85.70;;;;;;5022343;28;20045;-72
2023/05/09 06:26:41;;;;;;;71.72;47.22;;;16.40;85.40;;;;;;5008176;28;20041;-71
2023/05/09 06:29:07;;;;;;;69.38;45.65;;;16.40;85.20;;;;;;5005162;28;20037;-71
2023/05/09 06:31:37;;;;;;;64.28;43.63;;;16.40;85.10;;;;;;5020803;28;20113;-72
2023/05/09 06:34:06;;;;;;;66.55;43.53;;;16.40;85.10;;;;;;5024598;28;20519;-71
2023/05/09 06:36:32;;;;;;;69.60;46.28;;;16.50;85.20;;;;;;5020806;28;20083;-72
2023/05/09 06:38:58;;;;;;;74.30;49.55;;;16.50;85.10;;;;;;5023619;28;20125;-72
2023/05/09 06:41:24;;;;;;;76.85;49.35;;;16.50;84.90;;;;;;5007798;28;20726;-71
2023/05/09 06:43:53;;;;;;;70.05;46.28;;;16.50;84.80;;;;;;5025476;28;20539;-71
2023/05/09 06:46:19;;;;;;;72.88;48.83;;;16.50;84.90;;;;;;4989987;28;20042;-72
2023/05/09 06:48:44;;;;;;;71.57;47.88;;;16.50;84.90;;;;;;5022903;28;20033;-71
2023/05/09 06:51:10;;;;;;;71.50;48.05;;;16.60;84.90;;;;;;5025157;28;20472;-71
2023/05/09 06:53:36;;;;;;;73.75;47.50;;;16.60;84.90;;;;;;5024288;28;20037;-71
2023/05/09 06:56:03;;;;;;;74.20;47.65;;;16.60;84.80;;;;;;5020103;28;20041;-72
2023/05/09 06:58:28;;;;;;;73.18;45.90;;;16.60;84.70;;;;;;5025130;28;20045;-71
2023/05/09 07:00:54;;;;;;;69.97;46.78;;;16.70;84.50;;;;;;4989530;28;20049;-72
2023/05/09 07:03:20;;;;;;;71.53;47.42;;;16.70;84.40;;;;;;5007359;28;20073;-71
2023/05/09 07:05:46;;;;;;;69.22;45.63;;;16.80;84.40;;;;;;5021941;28;20137;-71
2023/05/09 07:08:12;;;;;;;66.35;44.17;;;16.80;84.20;;;;;;5009857;28;20072;-71
2023/05/09 07:10:38;;;;;;;68.95;45.40;;;16.80;84.10;;;;;;5023445;28;20037;-71
2023/05/09 07:13:04;;;;;;;69.47;45.78;;;16.90;83.90;;;;;;5026391;28;20120;-71
2023/05/09 07:15:30;;;;;;;63.85;43.60;;;16.90;83.60;;;;;;5025501;28;20081;-71
2023/05/09 07:17:55;;;;;;;63.97;46.20;;;16.90;83.40;;;;;;5003790;28;20076;-72
2023/05/09 07:20:21;;;;;;;67.68;45.50;;;16.90;83.20;;;;;;5024683;28;20082;-71
2023/05/09 07:22:47;;;;;;;68.88;46.28;;;17.00;83.10;;;;;;5019026;28;20049;-71
2023/05/09 07:25:12;;;;;;;65.10;42.63;;;17.00;83.00;;;;;;5023859;28;20490;-72
2023/05/09 07:27:38;;;;;;;65.50;43.63;;;17.00;82.80;;;;;;5021985;28;20112;-72
2023/05/09 07:30:05;;;;;;;65.78;45.05;;;17.00;82.80;;;;;;5019571;28;20404;-72
2023/05/09 07:32:31;;;;;;;69.28;45.33;;;17.10;82.90;;;;;;5043516;28;20058;-72
2023/05/09 07:34:57;;;;;;;67.05;44.78;;;17.10;82.90;;;;;;5019762;28;20061;-72
2023/05/09 07:37:22;;;;;;;65.70;44.22;;;17.10;82.90;;;;;;5019446;28;20050;-72
2023/05/09 07:39:48;;;;;;;60.05;41.40;;;17.20;82.80;;;;;;5023400;28;20417;-72
2023/05/09 07:42:15;;;;;;;64.35;43.67;;;17.20;82.80;;;;;;5019744;28;20045;-71
2023/05/09 07:44:40;;;;;;;60.05;42.35;;;17.30;82.70;;;;;;5024845;28;20042;-72
2023/05/09 07:47:07;;;;;;;59.72;41.83;;;17.30;82.40;;;;;;5022097;28;20092;-72
2023/05/09 07:49:34;;;;;;;54.75;39.13;;;17.40;81.80;;;;;;5023859;28;20095;-72
2023/05/09 07:52:00;;;;;;;56.22;38.42;;;17.40;81.50;;;;;;5045999;28;20029;-72
2023/05/09 07:54:26;;;;;;;52.53;37.00;;;17.40;81.20;;;;;;5007461;28;20482;-72
2023/05/09 07:56:52;;;;;;;48.47;35.47;;;17.50;81.00;;;;;;5022814;28;20427;-72
2023/05/09 07:59:18;;;;;;;56.60;38.22;;;17.50;80.70;;;;;;5020186;28;20057;-72
2023/05/09 08:01:44;;;;;;;50.97;37.13;;;17.50;80.30;;;;;;5019107;28;20048;-72
2023/05/09 08:04:10;;;;;;;47.75;36.60;;;17.60;80.10;;;;;;5021331;28;20046;-71
2023/05/09 08:06:36;;;;;;;46.67;35.63;;;17.60;79.90;;;;;;5006997;28;20100;-72
2023/05/09 08:09:01;;;;;;;44.90;33.05;;;17.70;79.70;;;;;;5044231;28;20041;-72
2023/05/09 08:11:27;;;;;;;45.13;33.72;;;17.70;79.00;;;;;;5018055;28;20045;-73
2023/05/09 08:13:53;;;;;;;47.83;34.03;;;17.70;78.80;;;;;;5020300;28;20042;-72
2023/05/09 08:16:19;;;;;;;42.83;30.83;;;17.70;78.40;;;;;;5027805;28;20037;-72
2023/05/09 08:18:45;;;;;;;44.83;31.60;;;17.70;78.40;;;;;;5029873;28;20033;-72
2023/05/09 08:21:12;;;;;;;41.58;30.70;;;17.70;78.40;;;;;;5025100;28;20053;-72
2023/05/09 08:23:39;;;;;;;43.70;31.80;;;17.80;78.50;;;;;;5006808;28;20049;-72
2023/05/09 08:26:05;;;;;;;38.90;27.85;;;17.80;78.50;;;;;;5042247;28;20457;-72
2023/05/09 08:28:30;;;;;;;37.60;27.15;;;17.80;78.10;;;;;;5007402;28;20072;-72
2023/05/09 08:30:56;;;;;;;37.10;28.17;;;17.90;77.90;;;;;;5023080;28;20115;-71
2023/05/09 08:33:22;;;;;;;33.15;24.88;;;17.90;77.60;;;;;;5006928;28;20053;-72
2023/05/09 08:35:52;;;;;;;29.42;23.02;;;17.90;77.20;;;;;;5023669;28;20147;-72
2023/05/09 08:38:18;;;;;;;34.30;24.15;;;17.90;76.30;;;;;;5026049;28;20484;-72
2023/05/09 08:40:44;;;;;;;30.25;23.70;;;17.90;76.10;;;;;;5023698;28;20053;-72
2023/05/09 08:43:11;;;;;;;35.00;24.67;;;17.90;76.00;;;;;;5026164;28;20060;-68
2023/05/09 08:45:52;;;;;;;32.08;23.85;;;17.90;76.00;;;;;;5011251;28;20037;-67
2023/05/09 08:48:18;;;;;;;33.03;24.70;;;18.00;75.80;;;;;;5027587;28;20038;-71
2023/05/09 08:50:44;;;;;;;30.42;23.40;;;18.00;75.50;;;;;;5019278;28;20059;-71
2023/05/09 08:53:11;;;;;;;30.70;24.00;;;18.00;75.60;;;;;;5025758;28;20034;-72
2023/05/09 08:55:37;;;;;;;31.15;23.38;;;18.00;75.90;;;;;;5022954;28;20038;-72
2023/05/09 08:58:04;;;;;;;33.08;24.85;;;18.00;75.90;;;;;;5025190;28;20037;-71
2023/05/09 09:00:32;;;;;;;32.00;23.38;;;18.10;76.20;;;;;;5022744;28;20053;-72
2023/05/09 09:03:01;;;;;;;30.38;23.55;;;18.20;76.20;;;;;;5033945;28;20048;-71
2023/05/09 09:05:29;;;;;;;29.70;23.17;;;18.20;76.00;;;;;;5015284;28;20045;-76
2023/05/09 09:07:56;;;;;;;27.90;22.40;;;18.20;76.00;;;;;;4997060;28;20662;-75
2023/05/09 09:10:25;;;;;;;27.40;21.67;;;18.30;75.50;;;;;;5022269;28;20044;-75
2023/05/09 09:12:53;;;;;;;27.55;20.80;;;18.30;75.10;;;;;;5034125;28;20049;-71
2023/05/09 09:15:21;;;;;;;26.98;20.85;;;18.30;75.10;;;;;;5034104;28;20037;-71
2023/05/09 09:17:49;;;;;;;25.77;20.00;;;18.40;75.30;;;;;;5034146;28;20049;-71
2023/05/09 09:20:17;;;;;;;26.30;20.02;;;18.50;75.30;;;;;;5027213;28;20108;-71
2023/05/09 09:22:46;;;;;;;27.13;21.25;;;18.60;75.10;;;;;;5029195;28;20049;-71
2023/05/09 09:25:12;;;;;;;24.80;20.42;;;18.60;75.00;;;;;;5006167;28;20527;-71
2023/05/09 09:27:38;;;;;;;25.60;21.08;;;18.70;74.50;;;;;;5030438;28;20037;-71
2023/05/09 09:30:11;;;;;;;26.55;20.65;;;18.80;73.50;;;;;;5012576;28;20036;-72
2023/05/09 09:32:40;;;;;;;25.77;19.00;;;18.90;73.20;;;;;;5015192;28;20048;-72
2023/05/09 09:35:08;;;;;;;23.95;19.50;;;18.90;73.10;;;;;;5021351;28;20049;-71
2023/05/09 09:37:39;;;;;;;26.85;19.60;;;19.00;72.70;;;;;;5031332;28;20034;-71
2023/05/09 09:40:10;;;;;;;24.67;18.70;;;19.10;71.70;;;;;;5005457;28;20040;-72
2023/05/09 09:42:44;;;;;;;34.25;21.70;;;19.10;71.20;;;;;;5031651;28;20119;-75
2023/05/09 09:45:15;;;;;;;21.95;16.83;;;19.20;71.20;;;;;;5020931;28;20038;-75
2023/05/09 09:47:46;;;;;;;21.40;17.30;;;19.20;71.20;;;;;;5023486;28;20038;-75
2023/05/09 09:50:14;;;;;;;22.13;16.67;;;19.30;71.30;;;;;;5015906;28;20119;-75
2023/05/09 09:52:51;;;;;;;20.05;16.02;;;19.30;71.10;;;;;;5018467;28;20053;-75
2023/05/09 09:55:18;;;;;;;21.90;16.80;;;19.40;70.10;;;;;;5020797;28;20042;-75
2023/05/09 09:57:44;;;;;;;22.05;16.92;;;19.50;70.20;;;;;;5026211;28;20555;-74
2023/05/09 10:00:12;;;;;;;19.83;16.52;;;19.50;69.50;;;;;;5013246;28;20030;-71
2023/05/09 10:02:49;;;;;;;19.88;16.80;;;19.60;69.40;;;;;;5028936;28;20041;-70
2023/05/09 10:05:24;;;;;;;19.67;15.80;;;19.60;69.10;;;;;;5029765;28;20045;-70
2023/05/09 10:08:00;;;;;;;25.63;18.25;;;19.70;69.00;;;;;;4997859;28;20044;-70
2023/05/09 10:10:28;;;;;;;20.05;16.20;;;19.70;68.80;;;;;;4999664;28;20496;-71
2023/05/09 10:13:09;;;;;;;20.35;17.52;;;19.70;68.30;;;;;;4996555;28;20485;-72
2023/05/09 10:15:36;;;;;;;19.98;16.38;;;19.70;68.10;;;;;;5009959;28;20159;-69
2023/05/09 10:18:03;;;;;;;20.55;16.98;;;19.70;68.70;;;;;;5016235;28;20053;-69
2023/05/09 10:20:30;;;;;;;22.58;17.98;;;19.70;68.50;;;;;;5032343;28;20043;-69
2023/05/09 10:23:00;;;;;;;19.55;15.38;;;19.70;68.30;;;;;;5032264;28;20214;-69
2023/05/09 10:25:39;;;;;;;18.13;14.70;;;19.70;68.30;;;;;;5031023;28;20049;-69
2023/05/09 10:28:10;;;;;;;19.50;14.98;;;19.70;67.70;;;;;;5032403;28;20511;-69
2023/05/09 10:30:52;;;;;;;18.80;14.73;;;19.70;68.30;;;;;;5032291;28;20045;-69
2023/05/09 10:33:25;;;;;;;17.73;15.50;;;19.70;68.30;;;;;;5032317;28;20042;-69
2023/05/09 10:35:53;;;;;;;17.42;14.05;;;19.80;69.00;;;;;;5015776;28;20456;-69
2023/05/09 10:38:19;;;;;;;15.88;13.30;;;19.80;68.70;;;;;;5012452;28;20074;-69
2023/05/09 10:40:49;;;;;;;16.42;12.50;;;19.90;68.20;;;;;;4996107;28;20050;-69
2023/05/09 10:43:15;;;;;;;15.27;10.68;;;19.90;66.70;;;;;;5012440;28;20046;-70
2023/05/09 10:45:42;;;;;;;13.00;10.60;;;19.90;65.90;;;;;;5026881;28;20056;-69
2023/05/09 10:48:08;;;;;;;13.23;10.95;;;19.90;65.80;;;;;;5031719;28;20076;-69
2023/05/09 10:50:39;;;;;;;13.90;11.57;;;19.90;65.80;;;;;;5032000;28;20140;-69
2023/05/09 10:53:07;;;;;;;13.93;12.43;;;19.90;66.20;;;;;;5031957;28;20554;-69
2023/05/09 10:55:37;;;;;;;17.83;12.77;;;19.90;66.40;;;;;;5018070;28;20041;-69
2023/05/09 10:58:26;;;;;;;14.38;11.88;;;19.90;66.40;;;;;;5011675;28;20046;-69
2023/05/09 11:00:57;;;;;;;13.93;11.95;;;20.00;66.90;;;;;;5012302;28;20049;-69
2023/05/09 11:03:27;;;;;;;13.15;11.85;;;20.00;67.00;;;;;;5012312;28;20433;-72
2023/05/09 11:05:55;;;;;;;13.80;11.93;;;20.00;66.40;;;;;;5011444;28;20045;-73
2023/05/09 11:08:32;;;;;;;14.73;13.18;;;20.00;66.40;;;;;;5031775;28;20049;-73
2023/05/09 11:11:04;;;;;;;13.60;12.20;;;20.00;66.10;;;;;;5031676;28;20051;-73
2023/05/09 11:13:35;;;;;;;17.40;13.55;;;20.00;66.70;;;;;;5032039;28;20452;-72
2023/05/09 11:16:00;;;;;;;13.30;11.85;;;19.90;66.90;;;;;;5031493;28;20045;-73
2023/05/09 11:18:31;;;;;;;15.40;11.85;;;20.00;67.60;;;;;;5031831;28;20103;-72
2023/05/09 11:20:58;;;;;;;13.75;12.35;;;20.00;67.80;;;;;;5031973;28;20044;-72
2023/05/09 11:23:26;;;;;;;14.38;12.82;;;20.00;68.10;;;;;;5031572;28;20060;-72
2023/05/09 11:25:52;;;;;;;16.25;13.65;;;20.00;68.10;;;;;;5029569;28;20488;-73
2023/05/09 11:28:29;;;;;;;16.67;12.93;;;20.00;68.00;;;;;;5015394;28;20124;-72
2023/05/09 11:31:27;;;;;;;14.40;12.52;;;20.10;67.90;;;;;;5031530;28;20033;-72
2023/05/09 11:34:03;;;;;;;13.57;12.18;;;20.10;67.90;;;;;;5009715;28;20057;-72
2023/05/09 11:36:32;;;;;;;13.65;12.25;;;20.10;68.10;;;;;;5012421;28;20377;-72
2023/05/09 11:39:06;;;;;;;13.60;12.20;;;20.10;68.50;;;;;;5011784;28;20043;-72
2023/05/09 11:42:03;;;;;;;13.45;12.05;;;20.20;68.60;;;;;;5012540;28;20046;-72
2023/05/09 11:44:32;;;;;;;15.93;13.15;;;20.20;68.40;;;;;;5003850;28;20058;-72
2023/05/09 11:46:57;;;;;;;14.07;12.65;;;20.30;68.10;;;;;;5011990;28;20096;-72
2023/05/09 11:49:23;;;;;;;13.52;11.18;;;20.30;67.90;;;;;;5011705;28;20504;-72
2023/05/09 11:51:49;;;;;;;14.00;12.50;;;20.30;68.20;;;;;;4995386;28;20046;-72
2023/05/09 11:54:15;;;;;;;14.15;11.02;;;20.40;68.60;;;;;;4996082;28;20084;-72
2023/05/09 11:56:41;;;;;;;12.48;11.20;;;20.40;68.60;;;;;;5015297;28;20456;-72
2023/05/09 11:59:07;;;;;;;14.68;12.90;;;20.40;68.70;;;;;;5015316;28;20062;-72
2023/05/09 12:01:34;;;;;;;17.38;15.25;;;20.50;68.70;;;;;;5031261;28;20045;-69
2023/05/09 12:04:01;;;;;;;13.55;12.15;;;20.50;68.90;;;;;;5031139;28;20049;-68
2023/05/09 12:06:27;;;;;;;14.57;13.05;;;20.60;69.20;;;;;;5012396;28;20072;-68
2023/05/09 12:08:55;;;;;;;13.73;12.27;;;20.60;69.40;;;;;;5011376;28;20133;-68
2023/05/09 12:11:22;;;;;;;15.48;13.80;;;20.60;69.30;;;;;;5015357;28;20042;-68
2023/05/09 12:13:51;;;;;;;14.60;13.07;;;20.60;69.60;;;;;;5015167;28;20173;-68
2023/05/09 12:16:18;;;;;;;14.90;13.35;;;20.60;69.80;;;;;;5031948;28;20060;-68
2023/05/09 12:18:48;;;;;;;15.60;14.00;;;20.70;69.60;;;;;;5035031;28;20053;-68
2023/05/09 12:21:14;;;;;;;14.38;12.88;;;20.60;69.60;;;;;;5034648;28;20428;-68
2023/05/09 12:23:40;;;;;;;16.38;14.77;;;20.70;69.90;;;;;;5035036;28;20053;-68
2023/05/09 12:26:06;;;;;;;16.88;15.10;;;20.60;69.90;;;;;;5019273;28;20104;-68
2023/05/09 12:28:33;;;;;;;14.95;13.45;;;20.70;70.00;;;;;;5014909;28;20485;-68
2023/05/09 12:30:59;;;;;;;16.65;14.95;;;20.70;70.00;;;;;;4998532;28;20040;-68
2023/05/09 12:33:25;;;;;;;16.65;14.45;;;20.70;70.30;;;;;;4998826;28;20050;-68
2023/05/09 12:36:23;;;;;;;13.13;11.65;;;20.70;70.50;;;;;;5010452;28;20609;-67